sensor_id;sensor_type;location;lat;lon;timestamp;P1;durP1;ratioP1;P2;durP2;ratioP2
61640;SDS011;62201;49.966;8.342;2023-11-19T00:01:51;5.50;;;3.37;;
61640;SDS011;62201;49.966;8.342;2023-11-19T00:04:16;4.97;;;3.60;;
61640;SDS011;62201;49.966;8.342;2023-11-19T00:06:42;5.40;;;3.50;;
61640;SDS011;62201;49.966;8.342;2023-11-19T00:09:07;4.53;;;2.97;;
61640;SDS011;62201;49.966;8.342;2023-11-19T00:11:33;5.53;;;3.47;;
61640;SDS011;62201;49.966;8.342;2023-11-19T00:13:58;4.97;;;3.67;;
61640;SDS011;62201;49.966;8.342;2023-11-19T00:16:23;4.13;;;3.30;;
61640;SDS011;62201;49.966;8.342;2023-11-19T00:18:49;5.77;;;3.80;;
61640;SDS011;62201;49.966;8.342;2023-11-19T00:21:14;7.83;;;4.10;;
61640;SDS011;62201;49.966;8.342;2023-11-19T00:23:40;4.90;;;3.83;;
61640;SDS011;62201;49.966;8.342;2023-11-19T00:26:05;6.63;;;4.47;;
61640;SDS011;62201;49.966;8.342;2023-11-19T00:28:31;5.40;;;4.90;;
61640;SDS011;62201;49.966;8.342;2023-11-19T00:30:58;6.70;;;4.30;;
61640;SDS011;62201;49.966;8.342;2023-11-19T00:33:23;11.50;;;6.53;;
61640;SDS011;62201;49.966;8.342;2023-11-19T00:35:49;11.07;;;6.70;;
61640;SDS011;62201;49.966;8.342;2023-11-19T00:38:15;12.23;;;9.10;;
61640;SDS011;62201;49.966;8.342;2023-11-19T00:40:41;12.13;;;9.17;;
61640;SDS011;62201;49.966;8.342;2023-11-19T00:43:06;10.13;;;8.87;;
61640;SDS011;62201;49.966;8.342;2023-11-19T00:45:32;12.87;;;9.00;;
61640;SDS011;62201;49.966;8.342;2023-11-19T00:47:58;13.00;;;9.17;;
61640;SDS011;62201;49.966;8.342;2023-11-19T00:50:24;13.93;;;9.20;;
61640;SDS011;62201;49.966;8.342;2023-11-19T00:52:50;11.00;;;9.20;;
61640;SDS011;62201;49.966;8.342;2023-11-19T00:55:16;12.77;;;9.10;;
61640;SDS011;62201;49.966;8.342;2023-11-19T00:57:42;12.27;;;9.50;;
61640;SDS011;62201;49.966;8.342;2023-11-19T01:00:08;14.57;;;10.48;;
61640;SDS011;62201;49.966;8.342;2023-11-19T01:02:43;17.13;;;11.13;;
61640;SDS011;62201;49.966;8.342;2023-11-19T01:05:10;29.23;;;16.15;;
61640;SDS011;62201;49.966;8.342;2023-11-19T01:07:39;21.10;;;14.37;;
61640;SDS011;62201;49.966;8.342;2023-11-19T01:10:05;36.70;;;19.47;;
61640;SDS011;62201;49.966;8.342;2023-11-19T01:12:31;19.73;;;13.43;;
61640;SDS011;62201;49.966;8.342;2023-11-19T01:14:56;33.47;;;19.90;;
61640;SDS011;62201;49.966;8.342;2023-11-19T01:17:22;25.47;;;16.27;;
61640;SDS011;62201;49.966;8.342;2023-11-19T01:19:48;30.30;;;16.73;;
61640;SDS011;62201;49.966;8.342;2023-11-19T01:22:15;27.37;;;15.07;;
61640;SDS011;62201;49.966;8.342;2023-11-19T01:24:40;19.37;;;13.30;;
61640;SDS011;62201;49.966;8.342;2023-11-19T01:27:05;20.10;;;13.43;;
61640;SDS011;62201;49.966;8.342;2023-11-19T01:29:31;43.17;;;23.47;;
61640;SDS011;62201;49.966;8.342;2023-11-19T01:31:56;33.37;;;20.83;;
61640;SDS011;62201;49.966;8.342;2023-11-19T01:34:22;26.83;;;18.10;;
61640;SDS011;62201;49.966;8.342;2023-11-19T01:36:47;21.43;;;15.93;;
61640;SDS011;62201;49.966;8.342;2023-11-19T01:39:13;14.60;;;11.83;;
61640;SDS011;62201;49.966;8.342;2023-11-19T01:41:41;22.13;;;14.90;;
61640;SDS011;62201;49.966;8.342;2023-11-19T01:44:06;22.33;;;14.73;;
61640;SDS011;62201;49.966;8.342;2023-11-19T01:46:32;21.27;;;15.10;;
61640;SDS011;62201;49.966;8.342;2023-11-19T01:48:57;24.63;;;16.77;;
61640;SDS011;62201;49.966;8.342;2023-11-19T01:51:24;26.30;;;17.47;;
61640;SDS011;62201;49.966;8.342;2023-11-19T01:53:49;21.63;;;14.67;;
61640;SDS011;62201;49.966;8.342;2023-11-19T01:56:15;39.27;;;20.93;;
61640;SDS011;62201;49.966;8.342;2023-11-19T01:58:41;18.43;;;13.33;;
61640;SDS011;62201;49.966;8.342;2023-11-19T02:01:09;18.70;;;13.40;;
61640;SDS011;62201;49.966;8.342;2023-11-19T02:03:36;19.53;;;13.80;;
61640;SDS011;62201;49.966;8.342;2023-11-19T02:06:02;36.90;;;19.63;;
61640;SDS011;62201;49.966;8.342;2023-11-19T02:08:29;44.67;;;22.05;;
61640;SDS011;62201;49.966;8.342;2023-11-19T02:10:54;30.77;;;17.57;;
61640;SDS011;62201;49.966;8.342;2023-11-19T02:13:22;17.77;;;12.03;;
61640;SDS011;62201;49.966;8.342;2023-11-19T02:15:49;29.38;;;17.38;;
61640;SDS011;62201;49.966;8.342;2023-11-19T02:18:22;24.25;;;15.98;;
61640;SDS011;62201;49.966;8.342;2023-11-19T02:20:49;28.53;;;17.47;;
61640;SDS011;62201;49.966;8.342;2023-11-19T02:23:15;34.33;;;20.97;;
61640;SDS011;62201;49.966;8.342;2023-11-19T02:25:42;27.17;;;16.70;;
61640;SDS011;62201;49.966;8.342;2023-11-19T02:28:11;30.47;;;18.27;;
61640;SDS011;62201;49.966;8.342;2023-11-19T02:30:37;31.27;;;19.37;;
61640;SDS011;62201;49.966;8.342;2023-11-19T02:33:03;27.97;;;18.27;;
61640;SDS011;62201;49.966;8.342;2023-11-19T02:35:30;22.65;;;14.88;;
61640;SDS011;62201;49.966;8.342;2023-11-19T02:37:56;26.67;;;17.10;;
61640;SDS011;62201;49.966;8.342;2023-11-19T02:40:24;31.13;;;18.95;;
61640;SDS011;62201;49.966;8.342;2023-11-19T02:42:49;22.88;;;15.43;;
61640;SDS011;62201;49.966;8.342;2023-11-19T02:45:24;34.47;;;19.93;;
61640;SDS011;62201;49.966;8.342;2023-11-19T02:47:50;30.77;;;17.83;;
61640;SDS011;62201;49.966;8.342;2023-11-19T02:50:16;18.92;;;11.85;;
61640;SDS011;62201;49.966;8.342;2023-11-19T02:52:42;14.80;;;9.55;;
61640;SDS011;62201;49.966;8.342;2023-11-19T02:55:11;16.08;;;11.10;;
61640;SDS011;62201;49.966;8.342;2023-11-19T02:57:40;10.23;;;8.13;;
61640;SDS011;62201;49.966;8.342;2023-11-19T03:00:20;10.02;;;6.75;;
61640;SDS011;62201;49.966;8.342;2023-11-19T03:02:52;8.65;;;5.72;;
61640;SDS011;62201;49.966;8.342;2023-11-19T03:05:24;9.05;;;6.22;;
61640;SDS011;62201;49.966;8.342;2023-11-19T03:07:51;11.10;;;6.68;;
61640;SDS011;62201;49.966;8.342;2023-11-19T03:10:17;12.75;;;6.47;;
61640;SDS011;62201;49.966;8.342;2023-11-19T03:12:43;17.00;;;8.70;;
61640;SDS011;62201;49.966;8.342;2023-11-19T03:15:09;7.22;;;5.35;;
61640;SDS011;62201;49.966;8.342;2023-11-19T03:17:38;10.02;;;5.63;;
61640;SDS011;62201;49.966;8.342;2023-11-19T03:20:05;10.40;;;7.15;;
61640;SDS011;62201;49.966;8.342;2023-11-19T03:22:32;18.70;;;11.25;;
61640;SDS011;62201;49.966;8.342;2023-11-19T03:25:01;16.65;;;8.93;;
61640;SDS011;62201;49.966;8.342;2023-11-19T03:27:26;16.33;;;10.48;;
61640;SDS011;62201;49.966;8.342;2023-11-19T03:29:51;13.85;;;9.55;;
61640;SDS011;62201;49.966;8.342;2023-11-19T03:32:17;16.30;;;8.85;;
61640;SDS011;62201;49.966;8.342;2023-11-19T03:34:42;17.20;;;11.18;;
61640;SDS011;62201;49.966;8.342;2023-11-19T03:37:08;30.50;;;15.20;;
61640;SDS011;62201;49.966;8.342;2023-11-19T03:39:33;41.03;;;18.10;;
61640;SDS011;62201;49.966;8.342;2023-11-19T03:41:59;13.88;;;9.93;;
61640;SDS011;62201;49.966;8.342;2023-11-19T03:44:25;12.38;;;8.70;;
61640;SDS011;62201;49.966;8.342;2023-11-19T03:46:52;17.25;;;10.73;;
61640;SDS011;62201;49.966;8.342;2023-11-19T03:49:17;13.38;;;8.98;;
61640;SDS011;62201;49.966;8.342;2023-11-19T03:51:42;24.33;;;12.73;;
61640;SDS011;62201;49.966;8.342;2023-11-19T03:54:08;17.98;;;10.43;;
61640;SDS011;62201;49.966;8.342;2023-11-19T03:56:33;15.80;;;9.40;;
61640;SDS011;62201;49.966;8.342;2023-11-19T03:58:59;28.10;;;13.70;;
61640;SDS011;62201;49.966;8.342;2023-11-19T04:01:24;10.40;;;7.20;;
61640;SDS011;62201;49.966;8.342;2023-11-19T04:03:49;15.43;;;10.07;;
61640;SDS011;62201;49.966;8.342;2023-11-19T04:06:15;14.15;;;9.55;;
61640;SDS011;62201;49.966;8.342;2023-11-19T04:08:40;22.92;;;10.90;;
61640;SDS011;62201;49.966;8.342;2023-11-19T04:11:06;11.68;;;8.15;;
61640;SDS011;62201;49.966;8.342;2023-11-19T04:13:33;26.60;;;11.73;;
61640;SDS011;62201;49.966;8.342;2023-11-19T04:15:58;26.90;;;13.20;;
61640;SDS011;62201;49.966;8.342;2023-11-19T04:18:24;32.95;;;14.63;;
61640;SDS011;62201;49.966;8.342;2023-11-19T04:20:49;17.85;;;10.43;;
61640;SDS011;62201;49.966;8.342;2023-11-19T04:23:15;14.97;;;8.60;;
61640;SDS011;62201;49.966;8.342;2023-11-19T04:25:41;10.75;;;6.78;;
61640;SDS011;62201;49.966;8.342;2023-11-19T04:28:06;13.57;;;8.00;;
61640;SDS011;62201;49.966;8.342;2023-11-19T04:30:33;26.45;;;11.43;;
61640;SDS011;62201;49.966;8.342;2023-11-19T04:32:58;22.98;;;10.90;;
61640;SDS011;62201;49.966;8.342;2023-11-19T04:35:23;23.40;;;11.55;;
61640;SDS011;62201;49.966;8.342;2023-11-19T04:37:51;32.25;;;13.05;;
61640;SDS011;62201;49.966;8.342;2023-11-19T04:40:16;26.98;;;12.20;;
61640;SDS011;62201;49.966;8.342;2023-11-19T04:42:43;23.30;;;10.32;;
61640;SDS011;62201;49.966;8.342;2023-11-19T04:45:08;13.45;;;6.85;;
61640;SDS011;62201;49.966;8.342;2023-11-19T04:47:35;32.60;;;11.98;;
61640;SDS011;62201;49.966;8.342;2023-11-19T04:50:01;13.38;;;7.07;;
61640;SDS011;62201;49.966;8.342;2023-11-19T04:52:27;8.23;;;5.03;;
61640;SDS011;62201;49.966;8.342;2023-11-19T04:54:52;12.98;;;7.28;;
61640;SDS011;62201;49.966;8.342;2023-11-19T04:57:17;7.22;;;3.92;;
61640;SDS011;62201;49.966;8.342;2023-11-19T04:59:43;13.32;;;6.07;;
61640;SDS011;62201;49.966;8.342;2023-11-19T05:02:09;18.02;;;7.90;;
61640;SDS011;62201;49.966;8.342;2023-11-19T05:04:34;15.00;;;7.03;;
61640;SDS011;62201;49.966;8.342;2023-11-19T05:07:00;7.05;;;4.15;;
61640;SDS011;62201;49.966;8.342;2023-11-19T05:09:25;15.60;;;8.00;;
61640;SDS011;62201;49.966;8.342;2023-11-19T05:11:51;8.05;;;5.13;;
61640;SDS011;62201;49.966;8.342;2023-11-19T05:14:16;2.63;;;2.08;;
61640;SDS011;62201;49.966;8.342;2023-11-19T05:16:43;6.25;;;2.25;;
61640;SDS011;62201;49.966;8.342;2023-11-19T05:19:09;3.75;;;2.38;;
61640;SDS011;62201;49.966;8.342;2023-11-19T05:21:34;9.23;;;4.40;;
61640;SDS011;62201;49.966;8.342;2023-11-19T05:24:01;5.53;;;2.13;;
61640;SDS011;62201;49.966;8.342;2023-11-19T05:26:29;6.93;;;3.90;;
61640;SDS011;62201;49.966;8.342;2023-11-19T05:28:55;7.82;;;3.97;;
61640;SDS011;62201;49.966;8.342;2023-11-19T05:31:21;10.85;;;5.53;;
61640;SDS011;62201;49.966;8.342;2023-11-19T05:33:46;7.38;;;4.50;;
61640;SDS011;62201;49.966;8.342;2023-11-19T05:36:12;11.13;;;5.55;;
61640;SDS011;62201;49.966;8.342;2023-11-19T05:38:38;3.50;;;2.22;;
61640;SDS011;62201;49.966;8.342;2023-11-19T05:41:04;4.03;;;2.40;;
61640;SDS011;62201;49.966;8.342;2023-11-19T05:43:30;12.75;;;6.22;;
61640;SDS011;62201;49.966;8.342;2023-11-19T05:45:55;2.75;;;2.00;;
61640;SDS011;62201;49.966;8.342;2023-11-19T05:48:21;12.10;;;4.90;;
61640;SDS011;62201;49.966;8.342;2023-11-19T05:50:46;10.95;;;5.38;;
61640;SDS011;62201;49.966;8.342;2023-11-19T05:53:14;7.25;;;4.72;;
61640;SDS011;62201;49.966;8.342;2023-11-19T05:55:40;8.15;;;4.00;;
61640;SDS011;62201;49.966;8.342;2023-11-19T05:58:11;8.27;;;4.03;;
61640;SDS011;62201;49.966;8.342;2023-11-19T06:00:40;9.60;;;4.65;;
61640;SDS011;62201;49.966;8.342;2023-11-19T06:03:07;5.47;;;3.05;;
61640;SDS011;62201;49.966;8.342;2023-11-19T06:05:32;6.50;;;4.10;;
61640;SDS011;62201;49.966;8.342;2023-11-19T06:07:58;7.00;;;4.43;;
61640;SDS011;62201;49.966;8.342;2023-11-19T06:10:23;9.88;;;4.68;;
61640;SDS011;62201;49.966;8.342;2023-11-19T06:12:55;29.70;;;10.77;;
61640;SDS011;62201;49.966;8.342;2023-11-19T06:15:24;9.88;;;4.80;;
61640;SDS011;62201;49.966;8.342;2023-11-19T06:17:50;4.18;;;2.80;;
61640;SDS011;62201;49.966;8.342;2023-11-19T06:20:15;9.57;;;4.80;;
61640;SDS011;62201;49.966;8.342;2023-11-19T06:22:42;7.25;;;3.78;;
61640;SDS011;62201;49.966;8.342;2023-11-19T06:25:08;9.27;;;5.28;;
61640;SDS011;62201;49.966;8.342;2023-11-19T06:27:34;9.60;;;5.80;;
61640;SDS011;62201;49.966;8.342;2023-11-19T06:30:00;6.47;;;3.63;;
61640;SDS011;62201;49.966;8.342;2023-11-19T06:32:26;6.78;;;3.55;;
61640;SDS011;62201;49.966;8.342;2023-11-19T06:34:51;3.78;;;2.65;;
61640;SDS011;62201;49.966;8.342;2023-11-19T06:37:16;4.75;;;2.88;;
61640;SDS011;62201;49.966;8.342;2023-11-19T06:39:42;5.65;;;3.25;;
61640;SDS011;62201;49.966;8.342;2023-11-19T06:42:07;9.43;;;4.05;;
61640;SDS011;62201;49.966;8.342;2023-11-19T06:44:32;8.57;;;6.00;;
61640;SDS011;62201;49.966;8.342;2023-11-19T06:46:58;5.70;;;4.45;;
61640;SDS011;62201;49.966;8.342;2023-11-19T06:49:23;9.90;;;5.78;;
61640;SDS011;62201;49.966;8.342;2023-11-19T06:51:49;22.88;;;11.02;;
61640;SDS011;62201;49.966;8.342;2023-11-19T06:54:15;21.00;;;10.57;;
61640;SDS011;62201;49.966;8.342;2023-11-19T06:56:41;17.95;;;8.50;;
61640;SDS011;62201;49.966;8.342;2023-11-19T06:59:06;23.30;;;10.15;;
61640;SDS011;62201;49.966;8.342;2023-11-19T07:01:35;17.25;;;8.95;;
61640;SDS011;62201;49.966;8.342;2023-11-19T07:04:01;18.15;;;9.55;;
61640;SDS011;62201;49.966;8.342;2023-11-19T07:06:33;15.88;;;9.30;;
61640;SDS011;62201;49.966;8.342;2023-11-19T07:08:59;13.35;;;8.35;;
61640;SDS011;62201;49.966;8.342;2023-11-19T07:11:24;8.05;;;3.90;;
61640;SDS011;62201;49.966;8.342;2023-11-19T07:13:50;23.52;;;12.30;;
61640;SDS011;62201;49.966;8.342;2023-11-19T07:16:15;12.70;;;6.82;;
61640;SDS011;62201;49.966;8.342;2023-11-19T07:18:40;16.88;;;9.25;;
61640;SDS011;62201;49.966;8.342;2023-11-19T07:21:09;15.27;;;9.20;;
61640;SDS011;62201;49.966;8.342;2023-11-19T07:23:35;15.85;;;8.43;;
61640;SDS011;62201;49.966;8.342;2023-11-19T07:26:01;20.00;;;10.45;;
61640;SDS011;62201;49.966;8.342;2023-11-19T07:28:26;12.57;;;7.20;;
61640;SDS011;62201;49.966;8.342;2023-11-19T07:30:53;21.55;;;11.02;;
61640;SDS011;62201;49.966;8.342;2023-11-19T07:33:21;48.50;;;19.10;;
61640;SDS011;62201;49.966;8.342;2023-11-19T07:35:46;46.75;;;26.13;;
61640;SDS011;62201;49.966;8.342;2023-11-19T07:38:11;37.90;;;19.95;;
61640;SDS011;62201;49.966;8.342;2023-11-19T07:40:37;31.42;;;17.10;;
61640;SDS011;62201;49.966;8.342;2023-11-19T07:43:02;52.75;;;22.00;;
61640;SDS011;62201;49.966;8.342;2023-11-19T07:45:27;19.33;;;11.88;;
61640;SDS011;62201;49.966;8.342;2023-11-19T07:47:53;38.60;;;22.90;;
61640;SDS011;62201;49.966;8.342;2023-11-19T07:50:19;47.50;;;24.73;;
61640;SDS011;62201;49.966;8.342;2023-11-19T07:52:45;23.67;;;12.73;;
61640;SDS011;62201;49.966;8.342;2023-11-19T07:55:10;13.30;;;9.07;;
61640;SDS011;62201;49.966;8.342;2023-11-19T07:57:36;16.73;;;10.25;;
61640;SDS011;62201;49.966;8.342;2023-11-19T08:00:02;19.02;;;10.93;;
61640;SDS011;62201;49.966;8.342;2023-11-19T08:02:28;15.60;;;10.35;;
61640;SDS011;62201;49.966;8.342;2023-11-19T08:04:53;26.45;;;14.35;;
61640;SDS011;62201;49.966;8.342;2023-11-19T08:07:20;20.55;;;12.73;;
61640;SDS011;62201;49.966;8.342;2023-11-19T08:09:46;17.75;;;10.85;;
61640;SDS011;62201;49.966;8.342;2023-11-19T08:12:11;41.53;;;19.98;;
61640;SDS011;62201;49.966;8.342;2023-11-19T08:14:39;30.70;;;15.68;;
61640;SDS011;62201;49.966;8.342;2023-11-19T08:17:04;47.05;;;23.48;;
61640;SDS011;62201;49.966;8.342;2023-11-19T08:19:29;17.15;;;12.02;;
61640;SDS011;62201;49.966;8.342;2023-11-19T08:21:55;18.90;;;12.27;;
61640;SDS011;62201;49.966;8.342;2023-11-19T08:24:20;10.23;;;7.78;;
61640;SDS011;62201;49.966;8.342;2023-11-19T08:26:46;9.70;;;5.63;;
61640;SDS011;62201;49.966;8.342;2023-11-19T08:29:12;4.50;;;3.70;;
61640;SDS011;62201;49.966;8.342;2023-11-19T08:31:38;7.28;;;4.68;;
61640;SDS011;62201;49.966;8.342;2023-11-19T08:34:03;7.90;;;5.28;;
61640;SDS011;62201;49.966;8.342;2023-11-19T08:36:29;6.60;;;4.45;;
61640;SDS011;62201;49.966;8.342;2023-11-19T08:38:56;5.47;;;3.60;;
61640;SDS011;62201;49.966;8.342;2023-11-19T08:41:22;5.32;;;4.03;;
61640;SDS011;62201;49.966;8.342;2023-11-19T08:43:47;7.70;;;5.28;;
61640;SDS011;62201;49.966;8.342;2023-11-19T08:46:12;7.00;;;4.78;;
61640;SDS011;62201;49.966;8.342;2023-11-19T08:48:38;6.55;;;4.97;;
61640;SDS011;62201;49.966;8.342;2023-11-19T08:51:04;3.85;;;3.20;;
61640;SDS011;62201;49.966;8.342;2023-11-19T08:53:30;4.55;;;3.13;;
61640;SDS011;62201;49.966;8.342;2023-11-19T08:55:55;6.22;;;2.65;;
61640;SDS011;62201;49.966;8.342;2023-11-19T08:58:20;5.80;;;2.03;;
61640;SDS011;62201;49.966;8.342;2023-11-19T09:00:46;3.17;;;1.38;;
61640;SDS011;62201;49.966;8.342;2023-11-19T09:03:12;3.42;;;1.52;;
61640;SDS011;62201;49.966;8.342;2023-11-19T09:05:37;4.80;;;1.65;;
61640;SDS011;62201;49.966;8.342;2023-11-19T09:08:03;4.95;;;1.30;;
61640;SDS011;62201;49.966;8.342;2023-11-19T09:10:29;3.28;;;1.10;;
61640;SDS011;62201;49.966;8.342;2023-11-19T09:12:54;12.98;;;2.63;;
61640;SDS011;62201;49.966;8.342;2023-11-19T09:15:20;8.43;;;1.50;;
61640;SDS011;62201;49.966;8.342;2023-11-19T09:17:45;5.20;;;1.40;;
61640;SDS011;62201;49.966;8.342;2023-11-19T09:20:11;7.25;;;1.20;;
61640;SDS011;62201;49.966;8.342;2023-11-19T09:22:39;4.47;;;1.20;;
61640;SDS011;62201;49.966;8.342;2023-11-19T09:25:05;6.40;;;1.13;;
61640;SDS011;62201;49.966;8.342;2023-11-19T09:27:31;5.53;;;1.85;;
61640;SDS011;62201;49.966;8.342;2023-11-19T09:29:56;7.32;;;1.65;;
61640;SDS011;62201;49.966;8.342;2023-11-19T09:32:22;5.72;;;1.40;;
61640;SDS011;62201;49.966;8.342;2023-11-19T09:34:47;8.60;;;1.33;;
61640;SDS011;62201;49.966;8.342;2023-11-19T09:37:13;5.65;;;1.20;;
61640;SDS011;62201;49.966;8.342;2023-11-19T09:39:38;4.85;;;1.45;;
61640;SDS011;62201;49.966;8.342;2023-11-19T09:42:04;4.90;;;1.30;;
61640;SDS011;62201;49.966;8.342;2023-11-19T09:44:29;6.00;;;1.45;;
61640;SDS011;62201;49.966;8.342;2023-11-19T09:46:54;9.13;;;1.95;;
61640;SDS011;62201;49.966;8.342;2023-11-19T09:49:23;7.53;;;1.77;;
61640;SDS011;62201;49.966;8.342;2023-11-19T09:51:52;8.88;;;1.70;;
61640;SDS011;62201;49.966;8.342;2023-11-19T09:54:17;9.35;;;2.10;;
61640;SDS011;62201;49.966;8.342;2023-11-19T09:56:43;9.35;;;1.77;;
61640;SDS011;62201;49.966;8.342;2023-11-19T09:59:08;10.02;;;1.92;;
61640;SDS011;62201;49.966;8.342;2023-11-19T10:01:35;8.52;;;1.70;;
61640;SDS011;62201;49.966;8.342;2023-11-19T10:04:03;10.32;;;2.25;;
61640;SDS011;62201;49.966;8.342;2023-11-19T10:06:28;6.47;;;1.80;;
61640;SDS011;62201;49.966;8.342;2023-11-19T10:08:54;6.38;;;1.98;;
61640;SDS011;62201;49.966;8.342;2023-11-19T10:11:20;14.35;;;2.10;;
61640;SDS011;62201;49.966;8.342;2023-11-19T10:13:46;6.75;;;1.60;;
61640;SDS011;62201;49.966;8.342;2023-11-19T10:16:13;8.35;;;2.00;;
61640;SDS011;62201;49.966;8.342;2023-11-19T10:21:12;11.80;;;2.40;;
61640;SDS011;62201;49.966;8.342;2023-11-19T10:23:48;8.18;;;1.85;;
61640;SDS011;62201;49.966;8.342;2023-11-19T10:26:18;7.63;;;1.65;;
61640;SDS011;62201;49.966;8.342;2023-11-19T10:28:45;6.78;;;1.55;;
61640;SDS011;62201;49.966;8.342;2023-11-19T10:31:15;8.88;;;2.20;;
61640;SDS011;62201;49.966;8.342;2023-11-19T10:33:42;5.38;;;1.20;;
61640;SDS011;62201;49.966;8.342;2023-11-19T10:36:09;12.15;;;2.47;;
61640;SDS011;62201;49.966;8.342;2023-11-19T10:38:36;12.07;;;2.15;;
61640;SDS011;62201;49.966;8.342;2023-11-19T10:41:02;9.93;;;1.90;;
61640;SDS011;62201;49.966;8.342;2023-11-19T10:43:29;10.57;;;2.10;;
61640;SDS011;62201;49.966;8.342;2023-11-19T10:45:54;11.25;;;2.33;;
61640;SDS011;62201;49.966;8.342;2023-11-19T10:48:34;9.43;;;1.83;;
61640;SDS011;62201;49.966;8.342;2023-11-19T10:51:00;9.77;;;1.83;;
61640;SDS011;62201;49.966;8.342;2023-11-19T10:53:26;9.93;;;1.80;;
61640;SDS011;62201;49.966;8.342;2023-11-19T10:55:52;7.47;;;1.70;;
61640;SDS011;62201;49.966;8.342;2023-11-19T10:58:21;11.13;;;2.38;;
61640;SDS011;62201;49.966;8.342;2023-11-19T11:00:48;7.82;;;1.75;;
61640;SDS011;62201;49.966;8.342;2023-11-19T11:03:22;12.65;;;2.22;;
61640;SDS011;62201;49.966;8.342;2023-11-19T11:05:51;10.15;;;1.98;;
61640;SDS011;62201;49.966;8.342;2023-11-19T11:08:17;7.32;;;1.63;;
61640;SDS011;62201;49.966;8.342;2023-11-19T11:10:53;10.77;;;2.20;;
61640;SDS011;62201;49.966;8.342;2023-11-19T11:13:20;6.85;;;1.60;;
61640;SDS011;62201;49.966;8.342;2023-11-19T11:15:48;7.80;;;2.00;;
61640;SDS011;62201;49.966;8.342;2023-11-19T11:18:15;9.32;;;2.03;;
61640;SDS011;62201;49.966;8.342;2023-11-19T11:20:43;8.25;;;1.70;;
61640;SDS011;62201;49.966;8.342;2023-11-19T11:29:05;9.18;;;1.70;;
61640;SDS011;62201;49.966;8.342;2023-11-19T11:31:55;7.28;;;1.50;;
61640;SDS011;62201;49.966;8.342;2023-11-19T11:37:37;7.97;;;1.90;;
61640;SDS011;62201;49.966;8.342;2023-11-19T11:40:15;6.80;;;1.70;;
61640;SDS011;62201;49.966;8.342;2023-11-19T11:42:46;4.53;;;1.50;;
61640;SDS011;62201;49.966;8.342;2023-11-19T11:45:14;5.75;;;1.67;;
61640;SDS011;62201;49.966;8.342;2023-11-19T11:55:37;7.65;;;1.40;;
61640;SDS011;62201;49.966;8.342;2023-11-19T11:58:17;4.93;;;1.33;;
61640;SDS011;62201;49.966;8.342;2023-11-19T12:00:43;5.65;;;1.20;;
61640;SDS011;62201;49.966;8.342;2023-11-19T12:03:10;6.93;;;1.50;;
61640;SDS011;62201;49.966;8.342;2023-11-19T12:05:42;7.80;;;1.95;;
61640;SDS011;62201;49.966;8.342;2023-11-19T12:08:10;7.50;;;1.60;;
61640;SDS011;62201;49.966;8.342;2023-11-19T12:10:37;8.68;;;1.70;;
61640;SDS011;62201;49.966;8.342;2023-11-19T12:13:12;7.85;;;1.40;;
61640;SDS011;62201;49.966;8.342;2023-11-19T12:18:31;16.55;;;2.17;;
61640;SDS011;62201;49.966;8.342;2023-11-19T12:20:57;8.88;;;1.90;;
61640;SDS011;62201;49.966;8.342;2023-11-19T12:23:28;12.13;;;2.45;;
61640;SDS011;62201;49.966;8.342;2023-11-19T12:25:54;13.32;;;2.83;;
61640;SDS011;62201;49.966;8.342;2023-11-19T12:28:20;8.52;;;2.17;;
61640;SDS011;62201;49.966;8.342;2023-11-19T12:30:45;10.07;;;2.85;;
61640;SDS011;62201;49.966;8.342;2023-11-19T12:33:13;12.60;;;2.00;;
61640;SDS011;62201;49.966;8.342;2023-11-19T12:35:42;8.40;;;2.25;;
61640;SDS011;62201;49.966;8.342;2023-11-19T12:38:18;10.48;;;2.13;;
61640;SDS011;62201;49.966;8.342;2023-11-19T12:40:45;16.50;;;2.20;;
61640;SDS011;62201;49.966;8.342;2023-11-19T12:43:10;7.10;;;1.73;;
61640;SDS011;62201;49.966;8.342;2023-11-19T12:45:36;8.73;;;2.13;;
61640;SDS011;62201;49.966;8.342;2023-11-19T12:48:04;7.60;;;2.05;;
61640;SDS011;62201;49.966;8.342;2023-11-19T12:50:49;7.57;;;2.08;;
61640;SDS011;62201;49.966;8.342;2023-11-19T12:53:19;13.82;;;2.30;;
61640;SDS011;62201;49.966;8.342;2023-11-19T12:55:45;14.07;;;2.38;;
61640;SDS011;62201;49.966;8.342;2023-11-19T12:58:13;8.20;;;1.98;;
61640;SDS011;62201;49.966;8.342;2023-11-19T13:00:58;10.30;;;1.83;;
61640;SDS011;62201;49.966;8.342;2023-11-19T13:03:35;8.23;;;1.70;;
61640;SDS011;62201;49.966;8.342;2023-11-19T13:06:03;10.13;;;2.38;;
61640;SDS011;62201;49.966;8.342;2023-11-19T13:08:39;8.32;;;1.77;;
61640;SDS011;62201;49.966;8.342;2023-11-19T13:11:06;12.20;;;2.67;;
61640;SDS011;62201;49.966;8.342;2023-11-19T13:13:33;5.97;;;1.77;;
61640;SDS011;62201;49.966;8.342;2023-11-19T13:16:17;8.02;;;1.98;;
61640;SDS011;62201;49.966;8.342;2023-11-19T13:18:42;11.95;;;2.25;;
61640;SDS011;62201;49.966;8.342;2023-11-19T13:21:07;11.35;;;2.08;;
61640;SDS011;62201;49.966;8.342;2023-11-19T13:23:33;8.43;;;1.65;;
61640;SDS011;62201;49.966;8.342;2023-11-19T13:25:58;8.73;;;1.95;;
61640;SDS011;62201;49.966;8.342;2023-11-19T13:28:23;7.75;;;1.80;;
61640;SDS011;62201;49.966;8.342;2023-11-19T13:30:50;8.55;;;1.70;;
61640;SDS011;62201;49.966;8.342;2023-11-19T13:33:16;8.45;;;1.98;;
61640;SDS011;62201;49.966;8.342;2023-11-19T13:35:41;9.13;;;2.33;;
61640;SDS011;62201;49.966;8.342;2023-11-19T13:38:06;8.65;;;2.03;;
61640;SDS011;62201;49.966;8.342;2023-11-19T13:40:33;8.90;;;1.92;;
61640;SDS011;62201;49.966;8.342;2023-11-19T13:42:59;9.93;;;1.90;;
61640;SDS011;62201;49.966;8.342;2023-11-19T13:45:24;7.72;;;1.80;;
61640;SDS011;62201;49.966;8.342;2023-11-19T13:47:50;9.73;;;1.77;;
61640;SDS011;62201;49.966;8.342;2023-11-19T13:50:15;8.50;;;2.20;;
61640;SDS011;62201;49.966;8.342;2023-11-19T13:52:45;9.77;;;1.70;;
61640;SDS011;62201;49.966;8.342;2023-11-19T13:55:12;8.80;;;2.22;;
61640;SDS011;62201;49.966;8.342;2023-11-19T13:57:38;11.20;;;2.15;;
61640;SDS011;62201;49.966;8.342;2023-11-19T14:00:07;11.88;;;2.00;;
61640;SDS011;62201;49.966;8.342;2023-11-19T14:02:44;8.93;;;2.42;;
61640;SDS011;62201;49.966;8.342;2023-11-19T14:05:14;11.82;;;2.30;;
61640;SDS011;62201;49.966;8.342;2023-11-19T14:07:43;7.95;;;1.90;;
61640;SDS011;62201;49.966;8.342;2023-11-19T14:10:09;9.27;;;2.00;;
61640;SDS011;62201;49.966;8.342;2023-11-19T14:12:36;11.52;;;2.45;;
61640;SDS011;62201;49.966;8.342;2023-11-19T14:15:02;9.32;;;1.92;;
61640;SDS011;62201;49.966;8.342;2023-11-19T14:17:31;11.80;;;2.92;;
61640;SDS011;62201;49.966;8.342;2023-11-19T14:19:58;9.57;;;2.20;;
61640;SDS011;62201;49.966;8.342;2023-11-19T14:22:24;9.45;;;1.90;;
61640;SDS011;62201;49.966;8.342;2023-11-19T14:24:49;9.43;;;2.10;;
61640;SDS011;62201;49.966;8.342;2023-11-19T14:27:15;12.00;;;2.22;;
61640;SDS011;62201;49.966;8.342;2023-11-19T14:29:42;10.75;;;2.50;;
61640;SDS011;62201;49.966;8.342;2023-11-19T14:32:08;13.73;;;2.45;;
61640;SDS011;62201;49.966;8.342;2023-11-19T14:34:33;7.28;;;1.90;;
61640;SDS011;62201;49.966;8.342;2023-11-19T14:36:58;12.73;;;2.20;;
61640;SDS011;62201;49.966;8.342;2023-11-19T14:39:25;7.80;;;2.03;;
61640;SDS011;62201;49.966;8.342;2023-11-19T14:41:51;13.23;;;2.47;;
61640;SDS011;62201;49.966;8.342;2023-11-19T14:44:17;9.70;;;2.20;;
61640;SDS011;62201;49.966;8.342;2023-11-19T14:46:44;8.43;;;2.05;;
61640;SDS011;62201;49.966;8.342;2023-11-19T14:49:10;9.60;;;1.83;;
61640;SDS011;62201;49.966;8.342;2023-11-19T14:51:36;8.68;;;2.20;;
61640;SDS011;62201;49.966;8.342;2023-11-19T14:54:03;11.32;;;2.15;;
61640;SDS011;62201;49.966;8.342;2023-11-19T14:56:29;9.70;;;2.22;;
61640;SDS011;62201;49.966;8.342;2023-11-19T14:58:54;9.63;;;1.90;;